Time;durP1;ratioP1;P1;durP2;ratioP2;P2;SDS_P1;SDS_P2;PMS_P1;PMS_P2;Temp;Humidity;BMP_temperature;BMP_pressure;BME280_temperature;BME280_humidity;BME280_pressure;Samples;Min_cycle;Max_cycle;Signal;HPM_P1;HPM_P2
2024/03/10 00:01:04;;;;;;;10.37;6.07;;;7.50;99.90;;;8.20;100.00;96159.69;4986818;28;20946;-76
2024/03/10 00:03:32;;;;;;;15.53;7.30;;;7.60;99.90;;;8.20;100.00;96151.88;4985728;28;20465;-76
2024/03/10 00:06:01;;;;;;;16.70;8.80;;;7.50;99.90;;;8.23;100.00;96158.47;4985160;28;20473;-76
2024/03/10 00:08:30;;;;;;;17.37;7.87;;;7.50;99.90;;;8.22;100.00;96147.28;4984160;28;20585;-76
2024/03/10 00:10:58;;;;;;;12.60;7.40;;;7.60;99.90;;;8.20;100.00;96157.09;4982312;28;20486;-76
2024/03/10 00:13:27;;;;;;;13.73;6.80;;;7.50;99.90;;;8.20;100.00;96157.09;4985258;28;20469;-76
2024/03/10 00:15:58;;;;;;;11.47;7.20;;;7.50;99.90;;;8.20;100.00;96151.88;4983385;28;20482;-76
2024/03/10 00:18:26;;;;;;;10.73;6.43;;;7.50;99.90;;;8.20;100.00;96154.50;4982412;28;20834;-76
2024/03/10 00:20:54;;;;;;;10.88;6.25;;;7.50;99.90;;;8.22;100.00;96149.88;4984341;28;20466;-76
2024/03/10 00:23:24;;;;;;;12.67;7.00;;;7.50;99.90;;;8.25;100.00;96157.25;4982877;28;20212;-76
2024/03/10 00:25:52;;;;;;;12.63;6.68;;;7.40;99.90;;;8.25;100.00;96157.25;4982771;28;20475;-76
2024/03/10 00:28:21;;;;;;;10.37;6.53;;;7.50;99.90;;;8.25;100.00;96154.63;4982439;28;20231;-76
2024/03/10 00:30:49;;;;;;;12.50;6.33;;;7.50;99.90;;;8.17;100.00;96159.34;4982638;28;20957;-76
2024/03/10 00:33:19;;;;;;;10.67;6.40;;;7.50;99.90;;;8.18;100.00;96159.13;4983203;28;20472;-76
2024/03/10 00:35:48;;;;;;;12.37;5.90;;;7.50;99.90;;;8.11;100.00;96153.22;4983090;28;20470;-76
2024/03/10 00:38:17;;;;;;;13.85;6.47;;;7.40;99.90;;;8.15;100.00;96154.38;4981190;28;20471;-76
2024/03/10 00:40:46;;;;;;;13.43;5.30;;;7.50;99.90;;;8.20;100.00;96151.88;4982434;28;20203;-76
2024/03/10 00:43:15;;;;;;;10.00;5.87;;;7.50;99.90;;;8.19;100.00;96155.50;4983148;28;20470;-76
2024/03/10 00:45:43;;;;;;;10.10;6.20;;;7.50;99.90;;;8.16;100.00;96155.16;4981439;28;20471;-76
2024/03/10 00:48:12;;;;;;;10.03;6.00;;;7.40;99.90;;;8.09;100.00;96157.81;4982465;28;20981;-76
2024/03/10 00:50:42;;;;;;;15.43;6.65;;;7.30;99.90;;;8.16;100.00;96168.94;4982112;28;20472;-76
2024/03/10 00:53:10;;;;;;;10.03;5.83;;;7.40;99.90;;;8.20;100.00;96162.28;4984970;28;20204;-76
2024/03/10 00:55:39;;;;;;;10.30;6.20;;;7.50;99.90;;;8.23;100.00;96161.06;4987855;28;20470;-76
2024/03/10 00:58:07;;;;;;;11.30;6.07;;;7.40;99.90;;;8.19;100.00;96165.91;4987028;28;20480;-76
2024/03/10 01:00:36;;;;;;;8.35;5.70;;;7.50;99.90;;;8.22;100.00;96165.50;4986555;28;20996;-76
2024/03/10 01:03:06;;;;;;;11.83;5.50;;;7.50;99.90;;;8.25;100.00;96172.88;4987508;28;20262;-76
2024/03/10 01:05:35;;;;;;;9.90;5.30;;;7.50;99.90;;;8.29;100.00;96174.06;4987158;28;20466;-77
2024/03/10 01:08:05;;;;;;;8.15;5.03;;;7.50;99.90;;;8.30;100.00;96167.81;4985462;28;20477;-76
2024/03/10 01:10:35;;;;;;;6.75;5.03;;;7.50;99.90;;;8.36;100.00;96158.34;4987121;28;20360;-76
2024/03/10 01:13:04;;;;;;;8.10;5.60;;;7.50;99.90;;;8.30;100.00;96162.59;4982430;28;20297;-76
2024/03/10 01:15:33;;;;;;;9.00;5.87;;;7.50;99.90;;;8.33;100.00;96153.59;4983819;28;20725;-76
2024/03/10 01:18:01;;;;;;;14.07;6.30;;;7.50;99.90;;;8.38;100.00;96146.69;4981266;28;20456;-76
2024/03/10 01:20:30;;;;;;;13.73;5.77;;;7.50;99.90;;;8.39;100.00;96139.69;4982210;28;21002;-76
2024/03/10 01:22:58;;;;;;;10.97;5.47;;;7.60;99.90;;;8.41;100.00;96142.84;4981708;28;20496;-76
2024/03/10 01:25:28;;;;;;;11.87;5.30;;;7.60;99.90;;;8.42;100.00;96142.63;4982839;28;20802;-76
2024/03/10 01:27:56;;;;;;;12.70;6.47;;;7.70;99.90;;;8.43;100.00;96133.03;4981315;28;21101;-76
2024/03/10 01:30:27;;;;;;;12.23;5.40;;;7.70;99.90;;;8.46;100.00;96125.56;4981553;28;20491;-76
2024/03/10 01:32:56;;;;;;;11.90;6.20;;;7.70;99.90;;;8.50;100.00;96118.88;4983650;28;20483;-76
2024/03/10 01:35:25;;;;;;;11.63;5.90;;;7.70;99.90;;;8.51;100.00;96128.28;4981803;28;20998;-76
2024/03/10 01:37:53;;;;;;;13.50;5.40;;;7.70;99.90;;;8.56;100.00;96123.22;4981220;28;20968;-76
2024/03/10 01:40:22;;;;;;;7.18;4.95;;;7.80;99.90;;;8.56;100.00;96115.41;4983031;28;20480;-76
2024/03/10 01:42:55;;;;;;;9.97;4.97;;;7.80;99.90;;;8.63;100.00;96114.50;4982367;28;20593;-76
2024/03/10 01:45:24;;;;;;;8.63;5.10;;;7.90;99.90;;;8.65;100.00;96102.03;4982221;28;20470;-77
2024/03/10 01:47:55;;;;;;;8.38;5.05;;;7.90;99.90;;;8.65;100.00;96100.22;4984762;28;20837;-76
2024/03/10 01:50:24;;;;;;;12.37;5.83;;;7.90;99.90;;;8.64;100.00;96098.66;4984445;28;20323;-76
2024/03/10 01:52:53;;;;;;;7.73;5.00;;;7.90;99.90;;;8.67;100.00;96092.22;4985602;28;20468;-76
2024/03/10 01:55:22;;;;;;;8.97;5.43;;;7.90;99.90;;;8.67;100.00;96100.03;4984567;28;20553;-76
2024/03/10 01:57:53;;;;;;;19.10;5.50;;;7.90;99.90;;;8.67;100.00;96097.41;4984964;28;20994;-76
2024/03/10 02:00:23;;;;;;;9.30;5.13;;;7.90;99.90;;;8.69;100.00;96087.56;4984857;28;21104;-77
2024/03/10 02:02:51;;;;;;;9.13;5.27;;;8.00;99.90;;;8.72;100.00;96081.88;4986400;28;20455;-76
2024/03/10 02:05:22;;;;;;;10.90;5.57;;;8.00;99.90;;;8.74;100.00;96074.66;4985429;28;20474;-76
2024/03/10 02:07:51;;;;;;;10.27;5.07;;;8.00;99.90;;;8.75;100.00;96076.22;4984537;28;20470;-76
2024/03/10 02:10:21;;;;;;;12.77;5.13;;;8.00;99.90;;;8.77;100.00;96074.22;4986041;28;20502;-76
2024/03/10 02:12:49;;;;;;;9.75;5.70;;;8.00;99.90;;;8.78;100.00;96081.03;4986623;28;20879;-76
2024/03/10 02:15:23;;;;;;;11.80;5.70;;;8.10;99.90;;;8.80;100.00;96074.56;4983424;28;20213;-76
2024/03/10 02:17:51;;;;;;;6.87;4.73;;;8.20;99.90;;;8.83;100.00;96068.09;4980835;28;20469;-76
2024/03/10 02:20:20;;;;;;;9.73;5.33;;;8.20;99.90;;;8.82;100.00;96082.13;4981078;28;21044;-76
2024/03/10 02:22:50;;;;;;;8.60;5.23;;;8.20;99.90;;;8.84;100.00;96078.31;4981432;28;20462;-76
2024/03/10 02:25:24;;;;;;;9.33;4.63;;;8.20;99.90;;;8.86;100.00;96072.84;4980705;28;20534;-76
2024/03/10 02:27:59;;;;;;;10.37;4.90;;;8.20;99.90;;;8.85;100.00;96073.91;4980771;28;20464;-76
2024/03/10 02:30:31;;;;;;;11.53;5.00;;;8.20;99.90;;;8.86;100.00;96070.25;4979529;28;20486;-76
2024/03/10 02:49:37;;;;;;;6.80;5.07;;;8.10;99.90;;;8.90;100.00;96021.88;4980935;28;20487;-76
2024/03/10 02:52:07;;;;;;;6.87;4.43;;;8.10;99.90;;;8.87;100.00;96024.94;4980864;28;20550;-76
2024/03/10 02:54:39;;;;;;;8.65;5.03;;;8.10;99.90;;;8.88;100.00;96026.53;4984595;28;20487;-76
2024/03/10 02:57:08;;;;;;;9.73;5.03;;;8.10;99.90;;;8.87;100.00;96012.69;4983680;28;20667;-76
2024/03/10 02:59:38;;;;;;;9.00;4.60;;;8.10;99.90;;;8.88;100.00;96008.28;4983422;28;20486;-76
2024/03/10 03:02:08;;;;;;;8.10;4.30;;;8.10;99.90;;;8.86;100.00;96002.50;4983899;28;20505;-76
2024/03/10 03:04:37;;;;;;;9.20;4.67;;;8.10;99.90;;;8.87;100.00;96001.47;4983679;28;20463;-76
2024/03/10 03:07:06;;;;;;;8.50;4.90;;;8.00;99.90;;;8.87;100.00;96002.28;4985350;28;20471;-76
2024/03/10 03:09:35;;;;;;;13.73;5.23;;;8.00;99.90;;;8.86;100.00;96000.69;4989421;28;20505;-76
2024/03/10 03:12:27;;;;;;;7.43;4.40;;;8.00;99.90;;;8.84;100.00;95991.50;4985825;28;21389;-76
2024/03/10 03:15:09;;;;;;;6.27;4.47;;;8.00;99.90;;;8.83;100.00;95977.69;4981914;28;20478;-76
2024/03/10 03:17:38;;;;;;;8.50;5.47;;;8.00;99.90;;;8.78;100.00;95961.91;4982445;28;20471;-77
2024/03/10 03:25:20;;;;;;;7.37;4.60;;;7.90;99.90;;;8.64;100.00;95975.41;4980913;28;20485;-76
2024/03/10 03:32:54;;;;;;;7.97;4.70;;;7.90;99.90;;;8.68;100.00;95958.31;4942485;28;20487;-76
2024/03/10 03:35:23;;;;;;;8.07;4.80;;;8.00;99.90;;;8.70;100.00;95951.06;4942014;28;20475;-76
2024/03/10 03:37:51;;;;;;;6.13;4.00;;;7.90;99.90;;;8.68;100.00;95956.50;4942187;28;20492;-76
2024/03/10 03:40:23;;;;;;;6.20;3.77;;;8.00;99.90;;;8.70;100.00;95964.88;4943286;28;20469;-76
2024/03/10 03:42:51;;;;;;;7.77;4.33;;;8.10;99.90;;;8.72;100.00;95960.22;4942760;28;20568;-76
2024/03/10 03:45:22;;;;;;;5.70;3.97;;;8.00;99.90;;;8.72;100.00;95959.44;4942811;28;20978;-76
2024/03/10 03:47:50;;;;;;;6.87;4.67;;;8.00;99.90;;;8.72;100.00;95968.03;4943662;28;20570;-76
2024/03/10 03:50:22;;;;;;;6.60;4.10;;;8.00;99.90;;;8.73;100.00;95958.41;4946470;28;21066;-76
2024/03/10 03:52:50;;;;;;;8.83;5.07;;;8.10;99.90;;;8.73;100.00;95954.00;4944075;28;21079;-76
2024/03/10 03:55:19;;;;;;;8.00;4.50;;;8.20;99.90;;;8.75;100.00;95951.16;4941662;28;20467;-76
2024/03/10 03:57:48;;;;;;;6.63;3.73;;;8.10;99.90;;;8.77;100.00;95949.13;4942832;28;21040;-76
2024/03/10 04:00:17;;;;;;;5.70;4.10;;;8.10;99.90;;;8.75;100.00;95945.94;4941795;28;20524;-76
2024/03/10 04:02:46;;;;;;;7.57;5.30;;;8.10;99.90;;;8.79;100.00;95952.28;4942244;28;20476;-76
2024/03/10 04:05:15;;;;;;;5.80;4.33;;;8.10;99.90;;;8.78;100.00;95950.72;4979408;28;20580;-76
2024/03/10 04:07:46;;;;;;;7.40;3.90;;;8.10;99.90;;;8.75;100.00;95944.13;4982336;28;20470;-76
2024/03/10 04:10:14;;;;;;;9.17;4.43;;;8.00;99.90;;;8.76;100.00;95939.72;4983284;28;20486;-76
2024/03/10 04:12:43;;;;;;;7.03;4.40;;;8.00;99.90;;;8.76;100.00;95937.13;4984006;28;20857;-76
2024/03/10 04:15:11;;;;;;;7.10;3.90;;;7.90;99.90;;;8.78;100.00;95937.69;4982942;28;20212;-76
2024/03/10 04:17:39;;;;;;;8.30;4.87;;;8.00;99.90;;;8.73;100.00;95917.53;4982474;28;20456;-77
2024/03/10 04:20:12;;;;;;;9.00;4.90;;;8.10;99.90;;;8.76;100.00;95900.63;4983835;28;20698;-76
2024/03/10 04:22:41;;;;;;;7.50;4.88;;;8.00;99.90;;;8.79;100.00;95889.75;4984065;28;20467;-76
2024/03/10 04:25:11;;;;;;;7.70;4.80;;;8.00;99.90;;;8.77;100.00;95881.38;4983568;28;20214;-76
2024/03/10 04:27:40;;;;;;;5.78;4.05;;;8.00;99.90;;;8.74;100.00;95874.84;4982601;28;20705;-76
2024/03/10 04:30:11;;;;;;;4.97;4.20;;;8.00;99.90;;;8.69;100.00;95869.50;4983784;28;20460;-76
2024/03/10 04:32:40;;;;;;;8.33;4.70;;;7.90;99.90;;;8.72;100.00;95878.66;4984053;28;20553;-76
2024/03/10 04:35:10;;;;;;;5.70;4.07;;;7.90;99.90;;;8.70;100.00;95881.50;4983004;28;20496;-76
2024/03/10 04:37:39;;;;;;;8.23;4.43;;;8.10;99.90;;;8.69;100.00;95894.75;4983927;28;20547;-76
2024/03/10 04:40:12;;;;;;;6.10;4.30;;;8.00;99.90;;;8.71;100.00;95880.47;4984933;28;20466;-76
2024/03/10 04:42:40;;;;;;;9.20;4.70;;;8.00;99.90;;;8.69;100.00;95879.91;4984686;28;20518;-76
2024/03/10 04:45:11;;;;;;;6.40;3.90;;;8.00;99.90;;;8.64;100.00;95869.41;4984834;28;20478;-76
2024/03/10 04:47:40;;;;;;;6.90;4.20;;;7.90;99.90;;;8.70;100.00;95865.09;4983898;28;20474;-76
2024/03/10 04:50:09;;;;;;;6.83;3.90;;;7.90;99.90;;;8.68;100.00;95861.94;4984503;28;20607;-76
2024/03/10 04:52:38;;;;;;;6.10;4.27;;;7.90;99.90;;;8.73;100.00;95867.22;4984910;28;20487;-76
2024/03/10 04:55:08;;;;;;;7.30;4.10;;;8.00;99.90;;;8.71;100.00;95864.06;4984525;28;20466;-76
2024/03/10 04:57:38;;;;;;;8.10;4.70;;;8.00;99.90;;;8.69;100.00;95864.28;4981475;28;20504;-76
2024/03/10 05:00:10;;;;;;;14.67;7.60;;;7.90;99.90;;;8.69;100.00;95864.28;4978888;28;20473;-79
2024/03/10 05:02:38;;;;;;;7.30;5.40;;;8.00;99.90;;;8.71;100.00;95856.25;4983340;28;20454;-76
2024/03/10 05:05:10;;;;;;;8.43;4.53;;;8.00;99.90;;;8.76;100.00;95858.94;4974302;28;20471;-77
2024/03/10 05:07:39;;;;;;;11.17;5.73;;;8.00;99.90;;;8.71;100.00;95861.47;4977369;28;20205;-82
2024/03/10 05:10:10;;;;;;;18.50;8.77;;;8.00;99.90;;;8.70;100.00;95871.09;4975909;28;20472;-77
2024/03/10 05:12:40;;;;;;;12.70;5.00;;;8.00;99.90;;;8.74;100.00;95874.84;4980080;28;20496;-76
2024/03/10 05:15:10;;;;;;;8.30;5.03;;;7.90;99.90;;;8.73;100.00;95875.03;4980770;28;20890;-76
2024/03/10 05:17:39;;;;;;;7.07;4.70;;;7.90;99.90;;;8.71;100.00;95883.06;4981812;28;20456;-76
2024/03/10 05:20:11;;;;;;;11.80;4.90;;;8.10;99.90;;;8.72;100.00;95884.66;4982273;28;20470;-77
2024/03/10 05:22:40;;;;;;;7.73;4.97;;;8.00;99.90;;;8.74;100.00;95897.47;4981570;28;20496;-77
2024/03/10 05:25:11;;;;;;;7.10;5.23;;;8.00;99.90;;;8.74;100.00;95913.91;4981796;28;20791;-77
2024/03/10 05:27:42;;;;;;;11.23;4.50;;;8.10;99.90;;;8.75;100.00;95912.06;4980082;28;21035;-77
2024/03/10 05:30:12;;;;;;;5.90;4.03;;;8.00;99.90;;;8.73;100.00;95908.91;4979501;28;20480;-77
2024/03/10 05:32:41;;;;;;;8.40;4.90;;;8.10;99.90;;;8.74;100.00;95913.13;4977659;28;20492;-76
2024/03/10 05:35:09;;;;;;;135.30;56.83;;;8.00;99.90;;;8.74;100.00;95908.72;4978756;28;20468;-75
2024/03/10 05:37:41;;;;;;;9.47;5.90;;;8.00;99.90;;;8.77;100.00;95915.25;4976771;28;20478;-76
2024/03/10 05:40:11;;;;;;;8.47;5.47;;;8.10;99.90;;;8.74;100.00;95926.16;4976859;28;20832;-76
2024/03/10 05:42:41;;;;;;;9.33;5.27;;;8.00;99.90;;;8.72;100.00;95922.97;4975994;28;20471;-76
2024/03/10 05:45:11;;;;;;;7.43;5.30;;;8.10;99.90;;;8.66;100.00;95919.47;4975551;28;20811;-76
2024/03/10 05:47:39;;;;;;;9.10;5.10;;;8.00;99.90;;;8.71;100.00;95913.56;4976594;28;20502;-76
2024/03/10 05:50:08;;;;;;;8.43;5.53;;;8.10;99.90;;;8.74;100.00;95918.31;4973796;28;20460;-76
2024/03/10 05:52:37;;;;;;;12.67;6.00;;;8.00;99.90;;;8.73;100.00;95914.13;4975287;28;20511;-77
2024/03/10 05:55:07;;;;;;;126.70;59.30;;;8.20;99.90;;;8.76;100.00;95921.50;4974951;28;20514;-78
2024/03/10 05:57:35;;;;;;;20.30;10.87;;;8.20;99.90;;;8.77;100.00;95920.47;4976788;28;20559;-75
2024/03/10 06:00:14;;;;;;;8.65;5.13;;;8.10;99.90;;;8.80;100.00;95912.19;4981623;28;20474;-76
2024/03/10 06:02:44;;;;;;;7.60;4.23;;;8.00;99.90;;;8.79;100.00;95894.97;4963555;28;20241;-76
2024/03/10 06:05:14;;;;;;;10.63;5.70;;;8.20;99.90;;;8.79;100.00;95877.53;4980044;28;20463;-76
2024/03/10 06:07:43;;;;;;;8.07;5.50;;;8.20;99.90;;;8.81;100.00;95866.88;4980142;28;20574;-76
2024/03/10 06:10:14;;;;;;;7.80;4.40;;;8.10;99.90;;;8.80;100.00;95850.47;4980639;28;20482;-76
2024/03/10 06:12:43;;;;;;;8.10;4.93;;;8.10;99.90;;;8.82;100.00;95827.56;4983373;28;20943;-76
2024/03/10 06:15:16;;;;;;;8.97;5.60;;;8.10;99.90;;;8.77;100.00;95830.06;4983348;28;20470;-76
2024/03/10 06:18:02;;;;;;;10.17;5.93;;;8.00;99.90;;;8.78;100.00;95829.03;4978938;28;20483;-76
2024/03/10 06:26:03;;;;;;;9.67;5.20;;;8.00;99.90;;;8.82;100.00;95899.72;4981635;28;20545;-76
2024/03/10 06:28:32;;;;;;;8.53;5.30;;;8.10;99.90;;;8.74;100.00;95929.56;4981088;28;20461;-76
2024/03/10 06:31:02;;;;;;;7.63;4.78;;;8.00;99.90;;;8.69;100.00;95946.88;4980793;28;20465;-76
2024/03/10 06:33:30;;;;;;;11.83;4.93;;;8.00;99.90;;;8.73;100.00;95948.81;4980619;28;20592;-76
2024/03/10 06:35:59;;;;;;;8.70;5.20;;;8.00;99.90;;;8.72;100.00;95962.03;4982293;28;20463;-76
2024/03/10 06:38:27;;;;;;;7.65;5.43;;;8.00;99.90;;;8.69;100.00;95985.94;4979179;28;20476;-76
2024/03/10 06:40:56;;;;;;;8.93;5.27;;;8.00;99.90;;;8.69;100.00;95999.78;4980864;28;20226;-76
2024/03/10 06:43:24;;;;;;;12.13;6.38;;;8.00;99.90;;;8.70;100.00;95975.31;4972420;28;20483;-75
2024/03/10 06:45:53;;;;;;;8.43;5.50;;;8.00;99.90;;;8.74;100.00;95970.44;4975576;28;20238;-81
2024/03/10 06:48:23;;;;;;;18.47;9.47;;;8.00;99.90;;;8.75;100.00;95987.63;4974985;28;20474;-76
2024/03/10 06:50:52;;;;;;;10.30;6.50;;;8.00;99.90;;;8.79;100.00;95988.78;4973005;28;20460;-76
2024/03/10 06:53:20;;;;;;;8.30;5.40;;;8.00;99.90;;;8.74;100.00;95999.09;4980129;28;20511;-76
2024/03/10 06:55:49;;;;;;;9.10;5.50;;;7.90;99.90;;;8.78;100.00;95992.41;4976724;28;20469;-76
2024/03/10 06:58:19;;;;;;;9.77;5.90;;;7.90;99.90;;;8.78;100.00;95977.56;4978293;28;20564;-76
2024/03/10 07:00:50;;;;;;;8.93;5.60;;;8.00;99.90;;;8.82;100.00;95977.91;4981060;28;20465;-76
2024/03/10 07:03:20;;;;;;;9.70;5.30;;;8.10;99.90;;;8.85;100.00;95993.09;4978789;28;21193;-76
2024/03/10 07:05:56;;;;;;;10.53;5.60;;;8.00;99.90;;;8.81;100.00;95992.75;4982314;28;20471;-76
2024/03/10 07:08:30;;;;;;;9.47;5.53;;;8.10;99.90;;;8.85;100.00;95993.88;4978565;28;20465;-76
2024/03/10 07:10:59;;;;;;;8.67;5.10;;;8.00;99.90;;;8.85;100.00;95993.88;4980523;28;20486;-76
2024/03/10 07:13:28;;;;;;;8.90;5.57;;;8.00;99.90;;;8.86;100.00;95992.06;4962530;28;20508;-77
2024/03/10 07:15:57;;;;;;;11.63;6.53;;;8.10;99.90;;;8.86;100.00;95976.44;4980424;28;20467;-76
2024/03/10 07:18:26;;;;;;;10.63;6.60;;;8.20;99.90;;;8.86;100.00;95958.19;4979828;28;20472;-76
2024/03/10 07:20:56;;;;;;;17.37;6.13;;;8.20;99.90;;;8.89;100.00;95953.31;4980023;28;20945;-77
2024/03/10 07:23:25;;;;;;;10.17;6.37;;;8.20;99.90;;;8.87;100.00;95928.50;4980559;28;20463;-76
2024/03/10 07:25:54;;;;;;;10.23;6.07;;;8.10;99.90;;;8.80;100.00;95918.22;4980926;28;20829;-77
2024/03/10 07:28:22;;;;;;;9.60;6.07;;;8.00;99.90;;;8.84;100.00;95897.69;4978304;28;20466;-76
2024/03/10 07:30:50;;;;;;;7.83;5.63;;;8.00;99.90;;;8.87;100.00;95894.63;4981797;28;20203;-76
2024/03/10 07:33:19;;;;;;;8.20;5.27;;;8.10;99.90;;;8.86;100.00;95901.66;4984635;28;20492;-76
2024/03/10 07:35:47;;;;;;;8.37;5.53;;;8.10;99.90;;;8.79;100.00;95937.47;4983471;28;20468;-76
2024/03/10 07:38:20;;;;;;;8.50;5.57;;;8.00;99.90;;;8.74;100.00;95954.81;4983658;28;20468;-76
2024/03/10 07:40:49;;;;;;;9.83;6.20;;;7.90;99.90;;;8.75;100.00;95951.97;4979067;28;20490;-76
2024/03/10 07:43:24;;;;;;;9.05;6.00;;;7.90;99.90;;;8.83;100.00;95943.00;4976742;28;20995;-76
2024/03/10 07:45:53;;;;;;;8.23;5.77;;;8.00;99.90;;;8.86;100.00;95938.13;4973571;28;20675;-76
2024/03/10 07:48:21;;;;;;;9.33;6.30;;;8.10;99.90;;;8.87;100.00;95933.72;4975058;28;20467;-76
2024/03/10 07:50:50;;;;;;;11.37;6.67;;;8.20;99.90;;;8.84;100.00;95932.38;4976389;28;20478;-76
2024/03/10 07:53:21;;;;;;;9.67;5.50;;;8.30;99.90;;;8.87;100.00;95931.13;4978090;28;20478;-79
2024/03/10 07:55:50;;;;;;;13.30;6.07;;;8.30;99.90;;;8.91;100.00;95929.63;4988864;28;20500;-79
2024/03/10 07:58:18;;;;;;;12.13;5.90;;;8.20;99.90;;;8.84;100.00;95928.97;4985369;28;20452;-80
2024/03/10 08:00:47;;;;;;;8.90;5.93;;;8.20;99.90;;;8.83;100.00;95927.38;4983742;28;21007;-78
2024/03/10 08:03:16;;;;;;;9.80;6.40;;;8.20;99.90;;;8.87;100.00;95925.91;4983275;28;20465;-78
2024/03/10 08:05:44;;;;;;;10.30;5.60;;;8.20;99.90;;;8.91;100.00;95924.44;4983866;28;20682;-78
2024/03/10 08:08:13;;;;;;;9.10;4.97;;;8.20;99.90;;;8.93;100.00;95919.78;4984282;28;20517;-77
2024/03/10 08:10:43;;;;;;;10.97;5.30;;;8.30;99.90;;;8.96;100.00;95924.53;4983761;28;20236;-77
2024/03/10 08:13:11;;;;;;;9.05;5.53;;;8.30;99.90;;;9.03;100.00;95935.63;4984727;28;20512;-77
2024/03/10 08:15:40;;;;;;;9.63;5.93;;;8.30;99.90;;;9.11;100.00;95932.66;4983946;28;20817;-78
2024/03/10 08:18:08;;;;;;;9.97;5.70;;;8.30;99.90;;;9.13;100.00;95932.44;4981598;28;20501;-78
2024/03/10 08:20:37;;;;;;;9.50;6.10;;;8.50;99.90;;;9.16;100.00;95932.78;4982081;28;20976;-77
2024/03/10 08:23:06;;;;;;;10.17;6.07;;;8.50;99.90;;;9.22;100.00;95929.25;4984697;28;20852;-78
2024/03/10 08:25:35;;;;;;;9.23;5.57;;;8.50;99.90;;;9.27;100.00;95944.19;4983549;28;20464;-78
2024/03/10 08:28:05;;;;;;;12.03;6.73;;;8.60;99.90;;;9.28;100.00;95941.34;4982965;28;20488;-77
2024/03/10 08:30:34;;;;;;;9.43;5.93;;;8.60;99.90;;;9.28;100.00;95930.94;4983564;28;20474;-78
2024/03/10 08:33:04;;;;;;;10.00;5.83;;;8.60;99.90;;;9.27;100.00;95944.97;4984159;28;20993;-78
2024/03/10 08:35:32;;;;;;;13.83;6.43;;;8.60;99.90;;;9.29;100.00;95942.16;4983279;28;20551;-76
2024/03/10 08:38:01;;;;;;;8.60;5.83;;;8.60;99.90;;;9.30;100.00;95939.31;4981451;28;20478;-79
2024/03/10 08:40:32;;;;;;;10.70;5.87;;;8.60;99.90;;;9.29;100.00;95945.56;4983186;28;20482;-77
2024/03/10 08:43:00;;;;;;;11.48;6.60;;;8.50;99.90;;;9.29;100.00;95942.94;4983467;28;20955;-79
2024/03/10 08:45:31;;;;;;;10.80;5.97;;;8.70;99.90;;;9.33;100.00;95936.25;4980154;28;20575;-78
2024/03/10 08:48:00;;;;;;;12.13;7.15;;;8.60;99.90;;;9.36;100.00;95937.59;4984114;28;20234;-78
2024/03/10 08:50:29;;;;;;;13.03;6.83;;;8.60;99.90;;;9.38;100.00;95943.38;4985417;28;20237;-84
2024/03/10 08:52:58;;;;;;;10.20;6.30;;;8.70;99.90;;;9.36;100.00;95938.41;4986322;28;20505;-78
2024/03/10 08:55:26;;;;;;;10.33;6.30;;;8.70;99.90;;;9.41;100.00;95941.09;4984809;28;20994;-79
2024/03/10 08:57:55;;;;;;;12.50;6.40;;;8.70;99.90;;;9.44;100.00;95951.06;4982685;28;20468;-79
2024/03/10 09:00:24;;;;;;;8.80;5.90;;;8.70;99.90;;;9.46;100.00;95954.25;4981591;28;21226;-78
2024/03/10 09:02:53;;;;;;;12.47;6.27;;;8.70;99.90;;;9.45;100.00;95944.81;4982860;28;20466;-80
2024/03/10 09:05:23;;;;;;;11.60;6.53;;;8.80;99.90;;;9.43;100.00;95930.44;4982989;28;20661;-79
2024/03/10 09:07:53;;;;;;;9.03;6.53;;;8.70;99.90;;;9.50;100.00;95928.50;4980861;28;20475;-78
2024/03/10 09:10:23;;;;;;;10.07;6.63;;;8.70;99.90;;;9.51;100.00;95917.03;4983972;28;20494;-78
2024/03/10 09:12:52;;;;;;;11.07;6.50;;;8.70;99.90;;;9.52;100.00;95914.19;4983169;28;20528;-78
2024/03/10 09:15:21;;;;;;;10.70;7.10;;;8.80;99.90;;;9.52;100.00;95911.56;4981578;28;20607;-78
2024/03/10 09:17:49;;;;;;;12.77;6.80;;;8.70;99.90;;;9.49;100.00;95901.59;4984613;28;20558;-78
2024/03/10 09:20:20;;;;;;;67.57;31.23;;;8.80;99.90;;;9.56;100.00;95912.69;4983244;28;20469;-81
2024/03/10 09:22:51;;;;;;;17.93;10.43;;;8.80;99.90;;;9.63;100.00;95912.56;4983419;28;21141;-77
2024/03/10 09:25:21;;;;;;;9.60;6.73;;;8.90;99.90;;;9.58;100.00;95904.63;4986038;28;20553;-77
2024/03/10 09:27:54;;;;;;;11.45;6.53;;;8.90;99.90;;;9.63;100.00;95909.16;4984785;28;20466;-78
2024/03/10 09:30:24;;;;;;;15.17;6.50;;;8.90;99.90;;;9.66;100.00;95909.47;4985173;28;20231;-77
2024/03/10 09:32:55;;;;;;;11.47;6.50;;;8.90;99.90;;;9.69;100.00;95909.00;4988854;28;20474;-77
2024/03/10 09:35:28;;;;;;;12.00;6.50;;;8.90;99.90;;;9.71;100.00;95917.41;4989248;28;20459;-77
2024/03/10 09:38:00;;;;;;;9.90;6.80;;;9.00;99.90;;;9.72;100.00;95923.41;4987750;28;20469;-78
2024/03/10 09:40:32;;;;;;;65.80;30.23;;;8.90;99.90;;;9.69;100.00;95918.63;4982975;28;20564;-81
2024/03/10 09:43:05;;;;;;;13.47;8.40;;;8.90;99.90;;;9.72;100.00;95915.59;4984123;28;20475;-77
2024/03/10 09:45:41;;;;;;;11.10;6.40;;;8.90;99.90;;;9.74;100.00;95914.31;4981015;28;20547;-77
2024/03/10 09:48:11;;;;;;;14.87;8.20;;;8.90;99.90;;;9.71;100.00;95919.22;4981367;28;20562;-77
2024/03/10 09:50:46;;;;;;;11.30;6.95;;;9.10;99.90;;;9.76;100.00;95927.91;4981974;28;20473;-76
2024/03/10 09:53:18;;;;;;;11.13;6.50;;;9.10;99.90;;;9.77;100.00;95913.84;4982526;28;20377;-77
2024/03/10 09:55:48;;;;;;;13.77;7.20;;;9.10;99.90;;;9.80;100.00;95915.19;4981685;28;20651;-76
2024/03/10 09:58:23;;;;;;;9.67;6.87;;;9.10;99.90;;;9.77;100.00;95905.22;4975669;28;20934;-77
2024/03/10 10:01:12;;;;;;;12.63;7.63;;;9.10;99.90;;;9.79;100.00;95890.13;4972860;28;20973;-76
2024/03/10 10:03:45;;;;;;;12.37;7.20;;;9.10;99.90;;;9.81;100.00;95894.09;4975906;28;20205;-77
2024/03/10 10:06:17;;;;;;;12.97;7.63;;;9.10;99.90;;;9.84;100.00;95903.25;4977627;28;20474;-77
2024/03/10 10:08:51;;;;;;;41.60;18.13;;;9.10;99.90;;;9.88;100.00;95904.38;4978087;28;20827;-85
2024/03/10 10:11:19;;;;;;;12.27;7.67;;;9.20;99.90;;;9.92;100.00;95914.13;4976663;28;20499;-77
2024/03/10 10:14:07;;;;;;;11.73;7.27;;;9.20;99.90;;;9.95;100.00;95905.03;4981560;28;20483;-77
2024/03/10 10:16:36;;;;;;;11.73;7.87;;;9.20;99.90;;;9.97;100.00;95902.97;4976976;28;20832;-77
2024/03/10 10:19:17;;;;;;;14.47;7.13;;;9.30;99.90;;;9.97;100.00;95908.19;4975150;28;20482;-76
2024/03/10 10:21:47;;;;;;;12.13;7.13;;;9.20;99.90;;;10.02;100.00;95901.25;4976407;28;20582;-76
2024/03/10 10:24:16;;;;;;;10.77;7.33;;;9.30;99.90;;;10.00;100.00;95897.25;4977141;28;20467;-77
2024/03/10 10:26:58;;;;;;;11.50;6.53;;;9.30;99.90;;;10.09;100.00;95901.09;4976981;28;20478;-76
2024/03/10 10:29:27;;;;;;;14.10;7.53;;;9.30;99.90;;;10.13;100.00;95896.97;4980674;28;20600;-77
2024/03/10 10:32:06;;;;;;;11.93;7.83;;;9.40;99.90;;;10.17;100.00;95902.53;4981235;28;20472;-77
2024/03/10 10:34:35;;;;;;;12.13;7.13;;;9.40;99.90;;;10.23;100.00;95894.56;4982125;28;20899;-82
2024/03/10 10:37:05;;;;;;;38.70;19.53;;;9.50;99.90;;;10.22;100.00;95902.63;4980908;28;20588;-77
2024/03/10 10:39:34;;;;;;;11.90;7.43;;;9.50;99.90;;;10.22;100.00;95897.38;4984531;28;20499;-76
2024/03/10 10:42:03;;;;;;;11.70;6.70;;;9.50;99.90;;;10.20;100.00;95886.41;4985461;28;20216;-76
2024/03/10 10:44:40;;;;;;;11.75;7.35;;;9.70;99.90;;;10.24;100.00;95888.28;4983905;28;20471;-76
2024/03/10 10:47:14;;;;;;;13.95;7.22;;;9.60;99.90;;;10.28;100.00;95894.63;4984383;28;20562;-77
2024/03/10 10:49:42;;;;;;;11.30;7.70;;;9.60;99.90;;;10.31;100.00;95903.81;4983120;28;20689;-77
2024/03/10 10:52:13;;;;;;;11.23;7.20;;;9.80;99.90;;;10.33;100.00;95902.53;4983629;28;20472;-77
2024/03/10 10:54:42;;;;;;;11.70;7.40;;;9.80;99.90;;;10.38;100.00;95897.38;4986104;28;20509;-76
2024/03/10 10:57:10;;;;;;;13.00;7.10;;;9.90;99.90;;;10.40;100.00;95892.72;4984368;28;20469;-77
2024/03/10 10:59:40;;;;;;;11.97;7.27;;;9.90;99.90;;;10.47;100.00;95897.78;4984182;28;20506;-77
2024/03/10 11:02:19;;;;;;;10.53;7.40;;;9.90;99.90;;;10.52;100.00;95893.41;4984980;28;20500;-76
2024/03/10 11:04:47;;;;;;;19.23;8.10;;;9.90;99.90;;;10.56;100.00;95885.88;4985349;28;20973;-76
2024/03/10 11:07:18;;;;;;;13.90;8.00;;;9.90;99.90;;;10.59;100.00;95880.97;4983204;28;20492;-76